Time;durP1;ratioP1;P1;durP2;ratioP2;P2;SDS_P1;SDS_P2;PMS_P1;PMS_P2;Temp;Humidity;BMP_temperature;BMP_pressure;BME280_temperature;BME280_humidity;BME280_pressure;Samples;Min_cycle;Max_cycle;Signal;HPM_P1;HPM_P2
2023/09/23 00:01:12;;;;;;;;;;;;;;;16.48;55.16;100834.16;5061254;28;1257;-63
2023/09/23 00:03:37;;;;;;;;;;;;;;;17.59;55.91;100828.09;5079142;28;1126;-64
2023/09/23 00:06:03;;;;;;;;;;;;;;;17.12;56.35;100828.47;5076396;28;1109;-63
2023/09/23 00:08:29;;;;;;;;;;;;;;;16.86;56.30;100834.75;5067357;28;1074;-63
2023/09/23 00:10:55;;;;;;;;;;;;;;;16.73;55.56;100832.53;5076332;28;1975;-63
2023/09/23 00:13:21;;;;;;;;;;;;;;;16.68;55.39;100835.28;5058797;28;1011;-63
2023/09/23 00:15:47;;;;;;;;;;;;;;;16.65;55.11;100827.56;5058657;28;1051;-63
2023/09/23 00:18:17;;;;;;;;;;;;;;;16.68;54.65;100822.38;5067862;28;1028;-63
2023/09/23 00:20:46;;;;;;;;;;;;;;;16.49;54.86;100813.84;5078311;28;1159;-64
2023/09/23 00:23:12;;;;;;;;;;;;;;;16.48;54.63;100814.94;5078437;28;1110;-64
2023/09/23 00:25:38;;;;;;;;;;;;;;;16.46;54.40;100813.56;5062175;28;1114;-64
2023/09/23 00:28:08;;;;;;;;;;;;;;;16.38;54.47;100813.00;5068300;28;1139;-64
2023/09/23 00:30:35;;;;;;;;;;;;;;;16.43;54.31;100818.50;5077688;28;1976;-63
2023/09/23 00:33:02;;;;;;;;;;;;;;;16.37;54.88;100821.50;5050215;28;1326;-63
2023/09/23 00:35:29;;;;;;;;;;;;;;;17.55;55.81;100828.94;5071926;28;1115;-63
2023/09/23 00:37:55;;;;;;;;;;;;;;;17.21;56.26;100822.13;5058338;28;1090;-64
2023/09/23 00:40:29;;;;;;;;;;;;;;;16.92;55.84;100808.13;5053692;28;1191;-63
2023/09/23 00:43:11;;;;;;;;;;;;;;;16.74;55.91;100809.47;5058234;28;1040;-63
2023/09/23 00:45:37;;;;;;;;;;;;;;;16.69;55.37;100818.53;5071166;28;848;-64
2023/09/23 00:48:08;;;;;;;;;;;;;;;16.67;55.00;100817.97;5059524;28;1307;-63
2023/09/23 00:50:34;;;;;;;;;;;;;;;16.52;54.91;100812.47;5065927;28;1988;-64
2023/09/23 00:52:59;;;;;;;;;;;;;;;16.49;54.77;100824.00;5045851;28;1163;-64
2023/09/23 00:55:25;;;;;;;;;;;;;;;16.45;54.68;100820.16;5048684;28;1159;-63
2023/09/23 00:57:55;;;;;;;;;;;;;;;16.43;54.45;100823.16;5046760;28;1055;-64
2023/09/23 01:00:25;;;;;;;;;;;;;;;16.40;54.41;100816.28;5068871;28;1166;-64
2023/09/23 01:02:51;;;;;;;;;;;;;;;16.35;54.35;100818.19;5071452;28;1082;-63
2023/09/23 01:05:19;;;;;;;;;;;;;;;16.77;55.80;100818.00;5067314;28;1019;-63
2023/09/23 01:07:46;;;;;;;;;;;;;;;17.40;55.94;100821.53;5060979;28;1106;-64
2023/09/23 01:10:12;;;;;;;;;;;;;;;16.96;56.08;100805.66;5049182;28;1308;-68
2023/09/23 01:12:37;;;;;;;;;;;;;;;16.74;55.85;100818.53;5043186;28;1909;-65
2023/09/23 01:15:03;;;;;;;;;;;;;;;16.67;55.56;100817.97;5049669;28;1351;-65
2023/09/23 01:17:29;;;;;;;;;;;;;;;16.60;55.29;100814.69;5060830;28;1058;-65
2023/09/23 01:19:54;;;;;;;;;;;;;;;16.56;55.10;100802.59;5057707;28;1103;-64
2023/09/23 01:22:23;;;;;;;;;;;;;;;16.52;54.79;100812.47;5053089;28;1109;-64
2023/09/23 01:24:49;;;;;;;;;;;;;;;16.43;54.81;100810.25;5057355;28;1183;-64
2023/09/23 01:27:17;;;;;;;;;;;;;;;16.42;54.68;100816.88;5057594;28;1182;-65
2023/09/23 01:29:42;;;;;;;;;;;;;;;16.38;54.53;100807.53;5039586;28;1159;-64
2023/09/23 01:32:20;;;;;;;;;;;;;;;17.19;56.18;100802.34;5070386;28;1978;-64
2023/09/23 01:34:45;;;;;;;;;;;;;;;17.13;55.89;100805.38;5056734;28;871;-66
2023/09/23 01:37:11;;;;;;;;;;;;;;;16.82;56.06;100805.38;5060774;28;1082;-61
2023/09/23 01:39:40;;;;;;;;;;;;;;;16.81;55.35;100800.97;5066262;28;1136;-62
2023/09/23 01:42:07;;;;;;;;;;;;;;;16.61;55.18;100819.06;5056783;28;1195;-62
2023/09/23 01:44:33;;;;;;;;;;;;;;;16.55;55.10;100806.44;5068623;28;1058;-61
2023/09/23 01:46:59;;;;;;;;;;;;;;;16.54;54.87;100810.28;5063689;28;1062;-63
2023/09/23 01:49:26;;;;;;;;;;;;;;;16.47;54.91;100799.56;5076877;28;1057;-62
2023/09/23 01:51:52;;;;;;;;;;;;;;;16.41;54.86;100803.38;5043037;28;1909;-61
2023/09/23 01:54:17;;;;;;;;;;;;;;;16.37;54.78;100800.38;5036567;28;1106;-62
2023/09/23 01:56:43;;;;;;;;;;;;;;;16.37;54.54;100803.13;5035524;28;1052;-63
2023/09/23 01:59:11;;;;;;;;;;;;;;;16.29;54.39;100798.16;5028211;28;1206;-63
2023/09/23 02:01:43;;;;;;;;;;;;;;;16.33;54.09;100798.44;5035286;28;1276;-62
2023/09/23 02:04:09;;;;;;;;;;;;;;;16.66;55.42;100799.88;5036801;28;1047;-62
2023/09/23 02:06:40;;;;;;;;;;;;;;;17.48;55.51;100800.91;5015984;28;1476;-62
2023/09/23 02:09:08;;;;;;;;;;;;;;;16.96;56.09;100806.50;5029858;28;1184;-62
2023/09/23 02:11:37;;;;;;;;;;;;;;;16.78;55.68;100807.84;5023233;28;1909;-62
2023/09/23 02:14:04;;;;;;;;;;;;;;;16.68;55.59;100805.91;5021713;28;1039;-62
2023/09/23 02:16:29;;;;;;;;;;;;;;;16.60;55.23;100803.69;5015807;28;1393;-61
2023/09/23 02:18:55;;;;;;;;;;;;;;;16.52;55.14;100796.00;5030311;28;1025;-62
2023/09/23 02:21:20;;;;;;;;;;;;;;;16.50;54.68;100798.19;5016438;28;1035;-62
2023/09/23 02:23:46;;;;;;;;;;;;;;;16.45;54.87;100800.94;5029101;28;1103;-62
2023/09/23 02:26:13;;;;;;;;;;;;;;;16.41;54.36;100801.47;5036485;28;1042;-62
2023/09/23 02:28:40;;;;;;;;;;;;;;;16.36;54.48;100803.41;5035483;28;1070;-64
2023/09/23 02:31:05;;;;;;;;;;;;;;;16.98;55.81;100798.78;5016471;28;1902;-62
2023/09/23 02:33:32;;;;;;;;;;;;;;;17.27;56.14;100806.47;5025738;28;1063;-64
2023/09/23 02:35:58;;;;;;;;;;;;;;;16.88;56.03;100810.59;5036375;28;806;-62
2023/09/23 02:38:23;;;;;;;;;;;;;;;16.75;55.70;100814.69;5022346;28;1153;-62
2023/09/23 02:40:50;;;;;;;;;;;;;;;16.67;55.10;100809.75;5016716;28;1118;-64
2023/09/23 02:43:18;;;;;;;;;;;;;;;16.57;54.97;100810.56;5017042;28;1047;-63
2023/09/23 02:45:47;;;;;;;;;;;;;;;16.55;54.78;100811.91;5028332;28;1047;-63
2023/09/23 02:48:13;;;;;;;;;;;;;;;16.49;54.81;100810.28;5015186;28;1248;-62
2023/09/23 02:50:39;;;;;;;;;;;;;;;16.45;54.70;100811.91;5028940;28;1921;-63
2023/09/23 02:53:04;;;;;;;;;;;;;;;16.47;54.33;100807.00;5043000;28;1202;-62
2023/09/23 02:55:30;;;;;;;;;;;;;;;16.31;54.69;100801.44;5038251;28;1115;-63
2023/09/23 02:57:55;;;;;;;;;;;;;;;16.31;54.24;100801.44;5037798;28;1103;-65
2023/09/23 03:00:23;;;;;;;;;;;;;;;16.33;54.32;100804.75;5064735;28;1071;-63
2023/09/23 03:02:52;;;;;;;;;;;;;;;16.78;55.67;100807.84;5062299;28;1052;-65
2023/09/23 03:05:18;;;;;;;;;;;;;;;17.61;55.81;100803.06;5048652;28;1180;-64
2023/09/23 03:07:48;;;;;;;;;;;;;;;17.03;56.29;100815.28;5038126;28;1430;-65
2023/09/23 03:10:18;;;;;;;;;;;;;;;16.79;56.07;100816.88;5055935;28;1003;-66
2023/09/23 03:12:51;;;;;;;;;;;;;;;16.70;55.47;100811.13;5072184;28;1901;-65
2023/09/23 03:15:19;;;;;;;;;;;;;;;16.66;55.35;100818.25;5057680;28;1091;-66
2023/09/23 03:17:50;;;;;;;;;;;;;;;16.54;55.13;100811.09;5058575;28;1219;-65
2023/09/23 03:20:22;;;;;;;;;;;;;;;16.50;54.78;100817.41;5075633;28;1122;-64
2023/09/23 03:22:49;;;;;;;;;;;;;;;16.45;54.70;100823.69;5056165;28;1130;-65
2023/09/23 03:25:19;;;;;;;;;;;;;;;16.40;54.76;100821.78;5037711;28;1320;-64
2023/09/23 03:27:46;;;;;;;;;;;;;;;16.35;54.62;100815.47;5057618;28;1151;-64
2023/09/23 03:30:12;;;;;;;;;;;;;;;16.34;54.36;100822.88;5062100;28;1146;-63
2023/09/23 03:32:39;;;;;;;;;;;;;;;17.26;55.74;100815.78;5045360;28;1906;-64
2023/09/23 03:35:07;;;;;;;;;;;;;;;17.07;56.05;100819.13;5074590;28;930;-64
2023/09/23 03:37:35;;;;;;;;;;;;;;;16.82;55.76;100830.91;5049402;28;1186;-62
2023/09/23 03:40:07;;;;;;;;;;;;;;;16.69;55.60;100834.16;5053335;28;1188;-61
2023/09/23 03:42:33;;;;;;;;;;;;;;;16.59;55.19;100830.34;5065901;28;1064;-65
2023/09/23 03:44:59;;;;;;;;;;;;;;;16.50;55.36;100831.13;5068806;28;1173;-62
2023/09/23 03:47:24;;;;;;;;;;;;;;;16.50;54.78;100831.13;5037706;28;1474;-65
2023/09/23 03:49:51;;;;;;;;;;;;;;;16.45;54.68;100828.38;5040669;28;1186;-66
2023/09/23 03:52:17;;;;;;;;;;;;;;;16.74;55.98;100836.94;5047465;28;1914;-64
2023/09/23 03:54:43;;;;;;;;;;;;;;;17.62;55.77;100835.78;5037600;28;1241;-66
2023/09/23 03:57:08;;;;;;;;;;;;;;;17.05;56.35;100842.47;5065159;28;1024;-60
2023/09/23 03:59:36;;;;;;;;;;;;;;;16.86;56.03;100842.19;5063475;28;1268;-64
2023/09/23 04:02:01;;;;;;;;;;;;;;;16.72;55.61;100842.69;5060394;28;1598;-61
2023/09/23 04:04:27;;;;;;;;;;;;;;;16.65;55.32;100842.16;5046684;28;1364;-61
2023/09/23 04:06:52;;;;;;;;;;;;;;;16.60;55.23;100847.63;5068239;28;1082;-59
2023/09/23 04:09:18;;;;;;;;;;;;;;;16.51;54.90;100847.34;5058691;28;1168;-60
2023/09/23 04:11:45;;;;;;;;;;;;;;;16.54;54.59;100848.72;5068849;28;2000;-62
2023/09/23 04:14:11;;;;;;;;;;;;;;;16.42;54.60;100851.69;5077660;28;1066;-65
2023/09/23 04:16:37;;;;;;;;;;;;;;;16.43;54.44;100854.16;5068704;28;1087;-64
2023/09/23 04:19:03;;;;;;;;;;;;;;;16.34;54.40;100853.06;5065927;28;1242;-63
2023/09/23 04:21:31;;;;;;;;;;;;;;;16.35;54.44;100860.19;5063250;28;1221;-64
2023/09/23 04:24:00;;;;;;;;;;;;;;;17.29;56.03;100848.22;5066711;28;1020;-65
2023/09/23 04:26:26;;;;;;;;;;;;;;;17.13;56.18;100849.34;5052707;28;1230;-65
2023/09/23 04:28:52;;;;;;;;;;;;;;;16.89;56.02;100863.63;5074542;28;1201;-65
2023/09/23 04:31:18;;;;;;;;;;;;;;;16.75;55.55;100861.38;5068190;28;1901;-64
2023/09/23 04:33:44;;;;;;;;;;;;;;;16.63;55.50;100857.25;5072942;28;1426;-64
2023/09/23 04:36:11;;;;;;;;;;;;;;;16.58;55.31;100856.13;5074605;28;1097;-64
2023/09/23 04:38:36;;;;;;;;;;;;;;;16.53;55.05;100858.84;5074900;28;1339;-65
2023/09/23 04:41:02;;;;;;;;;;;;;;;17.35;55.65;100854.53;5075914;28;1436;-65
2023/09/23 04:43:30;;;;;;;;;;;;;;;16.59;54.68;100855.03;5073033;28;1284;-64
2023/09/23 04:45:56;;;;;;;;;;;;;;;16.48;53.23;100855.28;5077055;28;1268;-65
2023/09/23 04:48:24;;;;;;;;;;;;;;;16.29;51.96;100863.19;5071653;28;1285;-65
2023/09/23 04:50:52;;;;;;;;;;;;;;;16.32;50.84;100866.22;5074789;28;1918;-64
2023/09/23 04:53:18;;;;;;;;;;;;;;;16.13;50.39;100865.03;5074575;28;1293;-64
2023/09/23 04:55:45;;;;;;;;;;;;;;;16.27;49.36;100859.88;5075550;28;1355;-64
2023/09/23 04:58:12;;;;;;;;;;;;;;;16.18;49.07;100862.31;5075764;28;1307;-65
2023/09/23 05:00:41;;;;;;;;;;;;;;;16.17;49.00;100860.66;5075163;28;1491;-64
2023/09/23 05:03:08;;;;;;;;;;;;;;;16.82;50.95;100860.28;5075836;28;1308;-65
2023/09/23 05:05:34;;;;;;;;;;;;;;;16.47;50.42;100870.94;5062733;28;1178;-65
2023/09/23 05:08:00;;;;;;;;;;;;;;;16.28;49.98;100862.34;5057670;28;1250;-64
2023/09/23 05:10:26;;;;;;;;;;;;;;;16.24;49.20;100869.47;5059245;28;1150;-64
2023/09/23 05:12:56;;;;;;;;;;;;;;;16.27;48.61;100865.38;5057923;28;1976;-64
2023/09/23 05:15:22;;;;;;;;;;;;;;;16.17;48.57;100879.88;5068609;28;2307;-67
2023/09/23 05:17:49;;;;;;;;;;;;;;;16.31;47.67;100878.28;5066611;28;2096;-65
2023/09/23 05:20:25;;;;;;;;;;;;;;;16.24;47.61;100877.72;5056738;28;2072;-65
2023/09/23 05:22:54;;;;;;;;;;;;;;;16.20;47.71;100879.34;5060139;28;1932;-64
2023/09/23 05:25:24;;;;;;;;;;;;;;;16.47;48.11;100892.88;5069445;28;1844;-65
2023/09/23 05:27:50;;;;;;;;;;;;;;;16.75;50.08;100880.59;5058076;28;2121;-66
2023/09/23 05:30:15;;;;;;;;;;;;;;;16.54;49.59;100887.16;5072651;28;2122;-65
2023/09/23 05:32:42;;;;;;;;;;;;;;;16.40;49.11;100886.84;5064899;28;1917;-65
2023/09/23 05:35:11;;;;;;;;;;;;;;;16.28;48.53;100881.56;5068476;28;1117;-64
2023/09/23 05:37:37;;;;;;;;;;;;;;;16.33;48.11;100875.28;5068820;28;1093;-64
2023/09/23 05:40:08;;;;;;;;;;;;;;;16.35;47.89;100887.63;5069950;28;1091;-66
2023/09/23 05:42:34;;;;;;;;;;;;;;;16.16;47.84;100887.28;5049591;28;1059;-66
2023/09/23 05:44:59;;;;;;;;;;;;;;;16.21;47.43;100889.22;5074225;28;1125;-67
2023/09/23 05:47:25;;;;;;;;;;;;;;;16.26;47.25;100881.03;5061481;28;1059;-65
2023/09/23 05:49:51;;;;;;;;;;;;;;;16.25;47.46;100887.59;5072290;28;1272;-66
2023/09/23 05:52:17;;;;;;;;;;;;;;;16.23;47.28;100885.13;5074282;28;1960;-65
2023/09/23 05:54:42;;;;;;;;;;;;;;;16.18;47.16;100878.78;5069812;28;1335;-64
2023/09/23 05:57:08;;;;;;;;;;;;;;;16.22;47.28;100890.88;5067812;28;1300;-66
2023/09/23 05:59:34;;;;;;;;;;;;;;;16.13;47.43;100887.00;5067700;28;2413;-63
2023/09/23 06:01:59;;;;;;;;;;;;;;;16.25;47.02;100887.59;5071528;28;1272;-64
2023/09/23 06:04:25;;;;;;;;;;;;;;;16.21;47.20;100895.53;5069197;28;1331;-63
2023/09/23 06:06:51;;;;;;;;;;;;;;;16.16;47.27;100891.94;5075720;28;1268;-64
2023/09/23 06:09:16;;;;;;;;;;;;;;;16.15;47.25;100895.78;5075375;28;1524;-64
2023/09/23 06:11:43;;;;;;;;;;;;;;;16.17;47.00;100893.59;5047271;28;1898;-64
2023/09/23 06:14:10;;;;;;;;;;;;;;;16.15;47.18;100907.59;5068213;28;1440;-66
2023/09/23 06:16:35;;;;;;;;;;;;;;;16.16;47.36;100901.00;5073057;28;1280;-68
2023/09/23 06:19:01;;;;;;;;;;;;;;;16.16;47.02;100903.75;5072922;28;1308;-65
2023/09/23 06:21:26;;;;;;;;;;;;;;;16.17;47.25;100893.59;5067839;28;1288;-66
2023/09/23 06:23:52;;;;;;;;;;;;;;;16.13;47.28;100897.97;5068647;28;1430;-66
2023/09/23 06:26:17;;;;;;;;;;;;;;;16.87;48.75;100905.06;5064595;28;1288;-66
2023/09/23 06:28:43;;;;;;;;;;;;;;;16.47;48.75;100900.31;5062143;28;1859;-70
2023/09/23 06:31:09;;;;;;;;;;;;;;;16.45;48.12;100903.28;5058210;28;1984;-65
2023/09/23 06:33:35;;;;;;;;;;;;;;;16.41;47.92;100893.94;5066644;28;1035;-63
2023/09/23 06:36:02;;;;;;;;;;;;;;;16.52;47.64;100900.31;5068300;28;1107;-62
2023/09/23 06:38:28;;;;;;;;;;;;;;;16.39;47.78;100899.72;5076051;28;1175;-59
2023/09/23 06:40:56;;;;;;;;;;;;;;;16.34;47.61;100902.47;5075940;28;967;-61
2023/09/23 06:43:22;;;;;;;;;;;;;;;16.34;47.32;100899.72;5076010;28;1062;-63
2023/09/23 06:45:56;;;;;;;;;;;;;;;16.24;47.56;100902.41;5073840;28;1058;-61
2023/09/23 06:48:22;;;;;;;;;;;;;;;16.34;47.18;100899.72;5055703;28;861;-60
2023/09/23 06:50:55;;;;;;;;;;;;;;;16.37;46.92;100910.16;5061182;28;1909;-61
2023/09/23 06:53:20;;;;;;;;;;;;;;;16.42;46.97;100917.56;5075670;28;1026;-60
2023/09/23 06:55:46;;;;;;;;;;;;;;;16.28;47.21;100914.50;5075397;28;1007;-65
2023/09/23 06:58:11;;;;;;;;;;;;;;;16.90;48.79;100911.94;5075418;28;1070;-65
2023/09/23 07:00:37;;;;;;;;;;;;;;;16.69;48.65;100927.53;5061297;28;2576;-61
2023/09/23 07:03:03;;;;;;;;;;;;;;;16.58;48.16;100932.19;5068555;28;1035;-60
2023/09/23 07:05:29;;;;;;;;;;;;;;;16.55;47.91;100930.81;5061686;28;1300;-65
2023/09/23 07:07:54;;;;;;;;;;;;;;;16.38;48.07;100933.75;5062209;28;1086;-62
2023/09/23 07:10:20;;;;;;;;;;;;;;;16.41;47.87;100933.22;5062438;28;1057;-60
2023/09/23 07:12:45;;;;;;;;;;;;;;;16.43;47.44;100931.00;5073968;28;1983;-60
2023/09/23 07:15:11;;;;;;;;;;;;;;;16.39;47.60;100938.13;5062493;28;1095;-60
2023/09/23 07:17:36;;;;;;;;;;;;;;;16.46;47.30;100939.81;5061991;28;1281;-61
2023/09/23 07:20:02;;;;;;;;;;;;;;;16.45;47.27;100938.97;5068384;28;1492;-61
2023/09/23 07:22:28;;;;;;;;;;;;;;;16.43;47.22;100928.28;5068278;28;1278;-60
2023/09/23 07:24:53;;;;;;;;;;;;;;;16.46;47.07;100926.09;5059752;28;853;-65
2023/09/23 07:27:19;;;;;;;;;;;;;;;16.38;47.32;100939.25;5068857;28;1139;-61
2023/09/23 07:29:44;;;;;;;;;;;;;;;16.38;47.20;100944.75;5055104;28;2727;-63
2023/09/23 07:32:10;;;;;;;;;;;;;;;16.36;47.06;100940.59;5071221;28;1905;-64
2023/09/23 07:34:35;;;;;;;;;;;;;;;16.42;46.86;100945.00;5077746;28;1030;-58
2023/09/23 07:37:02;;;;;;;;;;;;;;;16.40;47.00;100936.22;5066402;28;1094;-58
2023/09/23 07:39:28;;;;;;;;;;;;;;;16.46;46.67;100935.16;5069203;28;1062;-58
2023/09/23 07:41:54;;;;;;;;;;;;;;;16.40;46.84;100937.06;5072170;28;1116;-64
2023/09/23 07:44:19;;;;;;;;;;;;;;;16.42;46.82;100929.38;5068675;28;1050;-64
2023/09/23 07:46:45;;;;;;;;;;;;;;;16.39;46.96;100929.09;5075846;28;1020;-59
2023/09/23 07:49:10;;;;;;;;;;;;;;;16.44;47.05;100942.84;5074057;28;857;-57
2023/09/23 07:51:37;;;;;;;;;;;;;;;16.39;46.94;100940.06;5078566;28;1979;-64
2023/09/23 07:54:02;;;;;;;;;;;;;;;17.13;48.44;100942.75;5078233;28;996;-63
2023/09/23 07:56:28;;;;;;;;;;;;;;;16.75;48.71;100942.94;5075624;28;1082;-62
2023/09/23 07:58:53;;;;;;;;;;;;;;;16.71;48.00;100942.63;5068239;28;2380;-63
2023/09/23 08:01:19;;;;;;;;;;;;;;;16.63;47.97;100943.16;5078071;28;872;-62
2023/09/23 08:03:44;;;;;;;;;;;;;;;16.53;47.97;100929.41;5078773;28;1014;-63
2023/09/23 08:06:10;;;;;;;;;;;;;;;16.59;47.55;100945.63;5078520;28;1109;-61
2023/09/23 08:08:36;;;;;;;;;;;;;;;16.58;47.39;100935.75;5078019;28;1176;-61
2023/09/23 08:11:02;;;;;;;;;;;;;;;16.52;47.36;100930.50;5062705;28;1906;-61
2023/09/23 08:13:28;;;;;;;;;;;;;;;16.54;47.14;100936.56;5065944;28;825;-60
2023/09/23 08:15:57;;;;;;;;;;;;;;;16.57;47.08;100916.81;5074053;28;1192;-60
2023/09/23 08:18:22;;;;;;;;;;;;;;;16.54;47.15;100931.06;5077950;28;1132;-58
2023/09/23 08:20:48;;;;;;;;;;;;;;;16.50;47.02;100927.22;5074922;28;1047;-56
2023/09/23 08:23:13;;;;;;;;;;;;;;;16.55;46.90;100933.53;5058233;28;1035;-64
2023/09/23 08:25:38;;;;;;;;;;;;;;;16.50;47.07;100929.97;5065496;28;1054;-63
2023/09/23 08:28:04;;;;;;;;;;;;;;;16.47;47.07;100925.81;5047922;28;1214;-60
2023/09/23 08:30:30;;;;;;;;;;;;;;;16.51;47.02;100932.44;5076854;28;2628;-60
2023/09/23 08:32:55;;;;;;;;;;;;;;;16.52;46.97;100933.25;5071995;28;1894;-58
2023/09/23 08:35:21;;;;;;;;;;;;;;;16.45;47.48;100927.19;5073506;28;1422;-58
2023/09/23 08:37:46;;;;;;;;;;;;;;;16.42;47.31;100931.28;5076415;28;1229;-59
2023/09/23 08:40:12;;;;;;;;;;;;;;;16.50;46.96;100929.97;5077136;28;1366;-59
2023/09/23 08:42:38;;;;;;;;;;;;;;;16.47;47.00;100925.81;5075195;28;1374;-59
2023/09/23 08:45:10;;;;;;;;;;;;;;;16.52;46.99;100927.75;5076767;28;1370;-60
2023/09/23 08:47:39;;;;;;;;;;;;;;;16.51;46.84;100931.59;5072653;28;1276;-61
2023/09/23 08:50:10;;;;;;;;;;;;;;;16.49;46.99;100933.78;5074005;28;1368;-61
2023/09/23 08:52:36;;;;;;;;;;;;;;;16.48;46.81;100926.63;5076371;28;1909;-62
2023/09/23 08:55:04;;;;;;;;;;;;;;;16.52;46.92;100934.09;5072284;28;1228;-63
2023/09/23 08:57:30;;;;;;;;;;;;;;;16.40;47.07;100920.59;5071449;28;1113;-62
2023/09/23 08:59:55;;;;;;;;;;;;;;;16.43;46.98;100930.19;5064980;28;2275;-63
2023/09/23 09:02:21;;;;;;;;;;;;;;;16.53;47.03;100929.41;5077020;28;1260;-63
2023/09/23 09:04:47;;;;;;;;;;;;;;;16.49;46.92;100925.56;5070224;28;1296;-61
2023/09/23 09:07:13;;;;;;;;;;;;;;;16.62;46.96;100929.72;5072941;28;1082;-59
2023/09/23 09:09:38;;;;;;;;;;;;;;;16.56;47.04;100923.38;5074648;28;1130;-60
2023/09/23 09:12:04;;;;;;;;;;;;;;;16.55;46.93;100927.22;5072306;28;1906;-61
2023/09/23 09:14:30;;;;;;;;;;;;;;;16.56;47.04;100932.47;5059076;28;1303;-60
2023/09/23 09:16:55;;;;;;;;;;;;;;;16.56;47.07;100926.97;5075242;28;1288;-62
2023/09/23 09:19:21;;;;;;;;;;;;;;;16.63;46.82;100926.69;5073420;28;1316;-60
2023/09/23 09:21:49;;;;;;;;;;;;;;;16.48;47.51;100934.88;5073679;28;1308;-64
2023/09/23 09:24:14;;;;;;;;;;;;;;;16.55;47.16;100927.22;5073684;28;1347;-59
2023/09/23 09:26:40;;;;;;;;;;;;;;;16.56;47.21;100939.84;5074374;28;1244;-59
2023/09/23 09:29:06;;;;;;;;;;;;;;;16.49;47.31;100931.84;5073797;28;1930;-61
2023/09/23 09:31:33;;;;;;;;;;;;;;;16.54;47.03;100931.06;5073984;28;1972;-60
2023/09/23 09:34:02;;;;;;;;;;;;;;;16.51;47.44;100926.09;5076374;28;1114;-61
2023/09/23 09:36:27;;;;;;;;;;;;;;;16.58;46.89;100924.75;5058658;28;1289;-60
2023/09/23 09:38:53;;;;;;;;;;;;;;;16.64;47.22;100920.09;5076061;28;1338;-63
2023/09/23 09:41:21;;;;;;;;;;;;;;;16.51;47.19;100915.13;5058506;28;1315;-61
2023/09/23 09:43:47;;;;;;;;;;;;;;;16.61;47.22;100931.63;5055531;28;1110;-58
2023/09/23 09:46:13;;;;;;;;;;;;;;;16.56;47.47;100928.88;5074381;28;1422;-61
2023/09/23 09:48:39;;;;;;;;;;;;;;;16.55;47.50;100928.06;5069123;28;1141;-61
2023/09/23 09:51:06;;;;;;;;;;;;;;;16.57;47.27;100930.53;5067115;28;1917;-59
2023/09/23 09:53:31;;;;;;;;;;;;;;;16.54;47.09;100925.59;5054813;28;1280;-61
2023/09/23 09:55:57;;;;;;;;;;;;;;;16.55;47.29;100930.81;5049121;28;1190;-63
2023/09/23 09:58:23;;;;;;;;;;;;;;;16.54;47.43;100931.88;5044744;28;2343;-61
2023/09/23 10:00:50;;;;;;;;;;;;;;;16.57;47.29;100925.03;5067328;28;1399;-61
2023/09/23 10:03:16;;;;;;;;;;;;;;;16.62;47.04;100922.31;5051115;28;1728;-58
2023/09/23 10:05:44;;;;;;;;;;;;;;;16.55;47.44;100929.94;5063354;28;991;-61
2023/09/23 10:08:13;;;;;;;;;;;;;;;16.63;46.93;100923.13;5056081;28;1201;-58
2023/09/23 10:10:43;;;;;;;;;;;;;;;16.58;47.35;100930.25;5056515;28;1063;-60
2023/09/23 10:13:12;;;;;;;;;;;;;;;16.50;47.37;100925.28;5062811;28;1906;-65
2023/09/23 10:15:38;;;;;;;;;;;;;;;16.62;47.24;100930.56;5075813;28;1023;-58
2023/09/23 10:18:08;;;;;;;;;;;;;;;16.63;46.76;100932.19;5069050;28;1320;-62
2023/09/23 10:20:33;;;;;;;;;;;;;;;16.59;47.17;100934.66;5074656;28;1477;-63
2023/09/23 10:22:59;;;;;;;;;;;;;;;16.63;46.92;100932.19;5063688;28;1047;-64
2023/09/23 10:25:46;;;;;;;;;;;;;;;16.64;47.02;100933.03;5067889;28;1039;-63
2023/09/23 10:28:20;;;;;;;;;;;;;;;16.69;46.92;100920.13;5066273;28;1656;-61
2023/09/23 10:30:55;;;;;;;;;;;;;;;16.62;47.07;100924.22;5056682;28;1096;-61
2023/09/23 10:33:20;;;;;;;;;;;;;;;16.52;47.46;100909.38;5076073;28;1114;-62
2023/09/23 10:35:46;;;;;;;;;;;;;;;16.53;47.20;100911.00;5062485;28;1106;-65
2023/09/23 10:38:19;;;;;;;;;;;;;;;16.61;46.96;100904.19;5074714;28;908;-63
2023/09/23 10:40:48;;;;;;;;;;;;;;;16.67;46.84;100907.75;5063120;28;1104;-61
2023/09/23 10:43:14;;;;;;;;;;;;;;;16.60;46.88;100900.59;5044419;28;1034;-62
2023/09/23 10:45:39;;;;;;;;;;;;;;;16.46;47.41;100890.41;5075535;28;1209;-62
2023/09/23 10:48:05;;;;;;;;;;;;;;;16.60;47.19;100894.28;5062363;28;1146;-62
2023/09/23 10:50:30;;;;;;;;;;;;;;;16.59;47.05;100900.88;5042303;28;1217;-60
2023/09/23 10:52:56;;;;;;;;;;;;;;;16.56;47.22;100904.16;5056175;28;1978;-59
2023/09/23 10:55:22;;;;;;;;;;;;;;;16.55;47.15;100899.75;5056114;28;1146;-59
2023/09/23 10:57:48;;;;;;;;;;;;;;;16.58;47.05;100900.06;5069457;28;1078;-61
2023/09/23 11:00:16;;;;;;;;;;;;;;;16.49;47.37;100895.34;5062590;28;2541;-64
2023/09/23 11:02:42;;;;;;;;;;;;;;;16.57;46.87;100892.09;5042684;28;869;-64
2023/09/23 11:05:08;;;;;;;;;;;;;;;16.60;46.95;100892.34;5075143;28;1050;-64
2023/09/23 11:07:33;;;;;;;;;;;;;;;16.63;46.83;100891.00;5072703;28;1236;-61
2023/09/23 11:09:59;;;;;;;;;;;;;;;16.60;47.10;100884.13;5072398;28;947;-62
2023/09/23 11:12:27;;;;;;;;;;;;;;;16.58;46.98;100888.25;5073212;28;1909;-63
2023/09/23 11:14:53;;;;;;;;;;;;;;;16.53;47.30;100883.56;5058312;28;1166;-63
2023/09/23 11:17:25;;;;;;;;;;;;;;;16.75;46.59;100875.09;5077205;28;1070;-58
2023/09/23 11:19:57;;;;;;;;;;;;;;;16.66;46.94;100876.75;5059913;28;1080;-64
2023/09/23 11:22:26;;;;;;;;;;;;;;;16.56;47.32;100868.47;5067193;28;1290;-66
2023/09/23 11:24:52;;;;;;;;;;;;;;;16.55;47.27;100869.56;5065185;28;1120;-66
2023/09/23 11:27:17;;;;;;;;;;;;;;;16.62;47.20;100867.41;5050228;28;1461;-65
2023/09/23 11:29:43;;;;;;;;;;;;;;;16.64;47.06;100864.38;5065417;28;1800;-65
2023/09/23 11:32:09;;;;;;;;;;;;;;;16.64;46.96;100865.19;5066294;28;1906;-65
2023/09/23 11:34:36;;;;;;;;;;;;;;;16.58;47.26;100856.13;5064411;28;1186;-66
2023/09/23 11:37:02;;;;;;;;;;;;;;;16.73;46.96;100868.22;5067883;28;1233;-64
2023/09/23 11:39:31;;;;;;;;;;;;;;;16.64;46.95;100864.38;5073614;28;1027;-63
2023/09/23 11:41:57;;;;;;;;;;;;;;;16.62;46.83;100856.44;5074093;28;1249;-63
2023/09/23 11:44:23;;;;;;;;;;;;;;;16.61;46.80;100852.03;5074031;28;1363;-63
2023/09/23 11:46:48;;;;;;;;;;;;;;;16.69;46.75;100862.47;5074091;28;1249;-68
2023/09/23 11:49:14;;;;;;;;;;;;;;;16.67;46.80;100855.59;5072704;28;1371;-63
2023/09/23 11:51:39;;;;;;;;;;;;;;;16.61;46.82;100857.50;5071851;28;1971;-63
2023/09/23 11:54:05;;;;;;;;;;;;;;;17.37;47.89;100853.16;5074939;28;1303;-65
2023/09/23 11:56:32;;;;;;;;;;;;;;;17.01;48.63;100855.94;5068306;28;1296;-64
2023/09/23 11:58:58;;;;;;;;;;;;;;;16.84;48.50;100860.84;5078018;28;2241;-64
2023/09/23 12:01:24;;;;;;;;;;;;;;;16.80;48.16;100852.31;5077599;28;1343;-64
2023/09/23 12:03:49;;;;;;;;;;;;;;;16.85;47.52;100852.31;5072672;28;1237;-64
2023/09/23 12:06:16;;;;;;;;;;;;;;;16.72;47.64;100850.13;5052075;28;1348;-65
2023/09/23 12:08:42;;;;;;;;;;;;;;;16.75;47.54;100850.38;5077937;28;1319;-66
2023/09/23 12:11:07;;;;;;;;;;;;;;;16.77;47.41;100853.69;5075058;28;1977;-64
2023/09/23 12:13:33;;;;;;;;;;;;;;;16.75;47.16;100844.91;5077441;28;1295;-65
2023/09/23 12:15:58;;;;;;;;;;;;;;;16.74;47.20;100843.25;5076206;28;1261;-66
2023/09/23 12:18:24;;;;;;;;;;;;;;;16.79;47.03;100845.19;5069625;28;1276;-66
2023/09/23 12:20:51;;;;;;;;;;;;;;;16.66;47.20;100845.72;5067740;28;1303;-64
2023/09/23 12:23:17;;;;;;;;;;;;;;;16.71;47.06;100842.97;5078028;28;1343;-65
2023/09/23 12:25:43;;;;;;;;;;;;;;;16.73;47.13;100844.34;5077205;28;1280;-64
2023/09/23 12:28:08;;;;;;;;;;;;;;;16.75;47.12;100842.16;5071976;28;1319;-63
2023/09/23 12:30:34;;;;;;;;;;;;;;;16.85;46.67;100848.75;5077518;28;2670;-64
2023/09/23 12:33:02;;;;;;;;;;;;;;;16.75;46.88;100850.38;5074130;28;1996;-63
2023/09/23 12:35:27;;;;;;;;;;;;;;;16.83;46.90;100851.78;5069040;28;1076;-64
2023/09/23 12:37:53;;;;;;;;;;;;;;;16.72;47.04;100842.69;5076439;28;979;-63
2023/09/23 12:40:19;;;;;;;;;;;;;;;16.66;47.20;100843.81;5067381;28;1106;-64
2023/09/23 12:42:44;;;;;;;;;;;;;;;16.72;46.87;100847.38;5057990;28;1007;-62
2023/09/23 12:45:11;;;;;;;;;;;;;;;16.69;47.14;100847.91;5068418;28;1328;-66